sensor_id;sensor_type;location;lat;lon;timestamp;temperature;humidity
78541;SHT31;67835;51.968;5.646;2023-11-21T00:00:19;11.7;65.9
78541;SHT31;67835;51.968;5.646;2023-11-21T00:02:48;11.6;66.1
78541;SHT31;67835;51.968;5.646;2023-11-21T00:05:17;11.6;66.1
78541;SHT31;67835;51.968;5.646;2023-11-21T00:07:45;11.5;66.2
78541;SHT31;67835;51.968;5.646;2023-11-21T00:10:14;11.5;66.2
78541;SHT31;67835;51.968;5.646;2023-11-21T00:12:42;11.4;66.2
78541;SHT31;67835;51.968;5.646;2023-11-21T00:15:14;11.4;66.2
78541;SHT31;67835;51.968;5.646;2023-11-21T00:17:45;11.4;66.2
78541;SHT31;67835;51.968;5.646;2023-11-21T00:20:14;11.3;67.1
78541;SHT31;67835;51.968;5.646;2023-11-21T00:22:43;11.3;67.7
78541;SHT31;67835;51.968;5.646;2023-11-21T00:25:12;11.3;68.1
78541;SHT31;67835;51.968;5.646;2023-11-21T00:27:43;11.2;68.0
78541;SHT31;67835;51.968;5.646;2023-11-21T00:30:13;11.2;67.3
78541;SHT31;67835;51.968;5.646;2023-11-21T00:32:42;11.1;67.3
78541;SHT31;67835;51.968;5.646;2023-11-21T00:35:14;11.1;67.5
78541;SHT31;67835;51.968;5.646;2023-11-21T00:37:42;11.1;68.7
78541;SHT31;67835;51.968;5.646;2023-11-21T00:40:13;11.1;68.8
78541;SHT31;67835;51.968;5.646;2023-11-21T00:42:45;11.0;68.6
78541;SHT31;67835;51.968;5.646;2023-11-21T00:45:15;11.0;68.7
78541;SHT31;67835;51.968;5.646;2023-11-21T00:47:43;11.0;69.0
78541;SHT31;67835;51.968;5.646;2023-11-21T00:50:13;10.9;68.6
78541;SHT31;67835;51.968;5.646;2023-11-21T00:52:42;10.9;68.8
78541;SHT31;67835;51.968;5.646;2023-11-21T00:55:11;10.9;68.0
78541;SHT31;67835;51.968;5.646;2023-11-21T00:57:39;10.9;68.0
78541;SHT31;67835;51.968;5.646;2023-11-21T01:00:10;10.9;67.8
78541;SHT31;67835;51.968;5.646;2023-11-21T01:02:41;10.8;67.6
78541;SHT31;67835;51.968;5.646;2023-11-21T01:05:11;10.8;67.4
78541;SHT31;67835;51.968;5.646;2023-11-21T01:07:39;10.8;68.0
78541;SHT31;67835;51.968;5.646;2023-11-21T01:10:10;10.7;67.7
78541;SHT31;67835;51.968;5.646;2023-11-21T01:12:39;10.7;67.5
78541;SHT31;67835;51.968;5.646;2023-11-21T01:15:09;10.7;67.8
78541;SHT31;67835;51.968;5.646;2023-11-21T01:17:39;10.7;68.1
78541;SHT31;67835;51.968;5.646;2023-11-21T01:20:08;10.6;68.7
78541;SHT31;67835;51.968;5.646;2023-11-21T01:22:39;10.6;69.4
78541;SHT31;67835;51.968;5.646;2023-11-21T01:25:09;10.6;69.9
78541;SHT31;67835;51.968;5.646;2023-11-21T01:27:37;10.6;69.8
78541;SHT31;67835;51.968;5.646;2023-11-21T01:30:07;10.6;70.0
78541;SHT31;67835;51.968;5.646;2023-11-21T01:32:37;10.6;69.8
78541;SHT31;67835;51.968;5.646;2023-11-21T01:35:08;10.6;69.5
78541;SHT31;67835;51.968;5.646;2023-11-21T01:37:37;10.7;70.0
78541;SHT31;67835;51.968;5.646;2023-11-21T01:40:08;10.7;69.8
78541;SHT31;67835;51.968;5.646;2023-11-21T01:42:41;10.8;69.6
78541;SHT31;67835;51.968;5.646;2023-11-21T01:45:10;10.8;69.7
78541;SHT31;67835;51.968;5.646;2023-11-21T01:47:41;10.8;70.2
78541;SHT31;67835;51.968;5.646;2023-11-21T01:50:15;10.8;70.4
78541;SHT31;67835;51.968;5.646;2023-11-21T01:52:46;10.8;70.4
78541;SHT31;67835;51.968;5.646;2023-11-21T01:55:17;10.8;70.9
78541;SHT31;67835;51.968;5.646;2023-11-21T01:57:48;10.8;71.2
78541;SHT31;67835;51.968;5.646;2023-11-21T02:00:17;10.8;71.6
78541;SHT31;67835;51.968;5.646;2023-11-21T02:02:48;10.8;71.6
78541;SHT31;67835;51.968;5.646;2023-11-21T02:05:18;10.8;71.8
78541;SHT31;67835;51.968;5.646;2023-11-21T02:07:48;10.8;71.8
78541;SHT31;67835;51.968;5.646;2023-11-21T02:10:19;10.8;71.8
78541;SHT31;67835;51.968;5.646;2023-11-21T02:12:49;10.7;71.8
78541;SHT31;67835;51.968;5.646;2023-11-21T02:15:19;10.7;71.8
78541;SHT31;67835;51.968;5.646;2023-11-21T02:17:53;10.7;71.6
78541;SHT31;67835;51.968;5.646;2023-11-21T02:20:22;10.7;71.6
78541;SHT31;67835;51.968;5.646;2023-11-21T02:22:54;10.7;71.4
78541;SHT31;67835;51.968;5.646;2023-11-21T02:25:24;10.7;71.3
78541;SHT31;67835;51.968;5.646;2023-11-21T02:27:54;10.7;71.2
78541;SHT31;67835;51.968;5.646;2023-11-21T02:30:24;10.6;71.2
78541;SHT31;67835;51.968;5.646;2023-11-21T02:32:54;10.6;71.2
78541;SHT31;67835;51.968;5.646;2023-11-21T02:35:24;10.6;71.1
78541;SHT31;67835;51.968;5.646;2023-11-21T02:37:54;10.6;71.0
78541;SHT31;67835;51.968;5.646;2023-11-21T02:40:23;10.7;71.7
78541;SHT31;67835;51.968;5.646;2023-11-21T02:42:54;10.7;71.2
78541;SHT31;67835;51.968;5.646;2023-11-21T02:45:25;10.8;71.3
78541;SHT31;67835;51.968;5.646;2023-11-21T02:47:54;10.8;71.2
78541;SHT31;67835;51.968;5.646;2023-11-21T02:50:24;10.8;71.3
78541;SHT31;67835;51.968;5.646;2023-11-21T02:52:55;10.8;71.2
78541;SHT31;67835;51.968;5.646;2023-11-21T02:55:27;10.8;71.2
78541;SHT31;67835;51.968;5.646;2023-11-21T02:58:01;10.9;71.0
78541;SHT31;67835;51.968;5.646;2023-11-21T03:00:30;10.9;71.3
78541;SHT31;67835;51.968;5.646;2023-11-21T03:02:59;10.9;71.1
78541;SHT31;67835;51.968;5.646;2023-11-21T03:05:27;10.9;71.3
78541;SHT31;67835;51.968;5.646;2023-11-21T03:07:57;10.9;71.6
78541;SHT31;67835;51.968;5.646;2023-11-21T03:10:26;11.0;71.7
78541;SHT31;67835;51.968;5.646;2023-11-21T03:12:55;11.0;71.8
78541;SHT31;67835;51.968;5.646;2023-11-21T03:15:24;11.0;71.9
78541;SHT31;67835;51.968;5.646;2023-11-21T03:17:54;11.0;71.9
78541;SHT31;67835;51.968;5.646;2023-11-21T03:20:24;11.0;71.9
78541;SHT31;67835;51.968;5.646;2023-11-21T03:22:52;11.0;71.9
78541;SHT31;67835;51.968;5.646;2023-11-21T03:25:22;11.0;72.0
78541;SHT31;67835;51.968;5.646;2023-11-21T03:27:51;11.0;72.3
78541;SHT31;67835;51.968;5.646;2023-11-21T03:30:22;11.0;72.6
78541;SHT31;67835;51.968;5.646;2023-11-21T03:32:52;11.0;72.8
78541;SHT31;67835;51.968;5.646;2023-11-21T03:35:21;11.1;72.8
78541;SHT31;67835;51.968;5.646;2023-11-21T03:37:52;11.1;72.5
78541;SHT31;67835;51.968;5.646;2023-11-21T03:40:22;11.2;72.2
78541;SHT31;67835;51.968;5.646;2023-11-21T03:42:51;11.2;72.2
78541;SHT31;67835;51.968;5.646;2023-11-21T03:45:19;11.3;72.2
78541;SHT31;67835;51.968;5.646;2023-11-21T03:47:53;11.3;71.9
78541;SHT31;67835;51.968;5.646;2023-11-21T03:50:23;11.4;71.7
78541;SHT31;67835;51.968;5.646;2023-11-21T03:52:51;11.4;71.4
78541;SHT31;67835;51.968;5.646;2023-11-21T03:55:20;11.4;71.2
78541;SHT31;67835;51.968;5.646;2023-11-21T03:57:49;11.5;71.2
78541;SHT31;67835;51.968;5.646;2023-11-21T04:00:18;11.5;71.1
78541;SHT31;67835;51.968;5.646;2023-11-21T04:02:48;11.5;71.1
78541;SHT31;67835;51.968;5.646;2023-11-21T04:05:19;11.5;71.1
78541;SHT31;67835;51.968;5.646;2023-11-21T04:07:48;11.6;71.0
78541;SHT31;67835;51.968;5.646;2023-11-21T04:10:17;11.6;71.1
78541;SHT31;67835;51.968;5.646;2023-11-21T04:12:46;11.6;71.1
78541;SHT31;67835;51.968;5.646;2023-11-21T04:15:14;11.7;70.7
78541;SHT31;67835;51.968;5.646;2023-11-21T04:17:44;11.7;70.9
78541;SHT31;67835;51.968;5.646;2023-11-21T04:20:12;11.8;70.7
78541;SHT31;67835;51.968;5.646;2023-11-21T04:22:44;11.8;70.1
78541;SHT31;67835;51.968;5.646;2023-11-21T04:25:15;11.8;70.0
78541;SHT31;67835;51.968;5.646;2023-11-21T04:27:45;11.9;70.1
78541;SHT31;67835;51.968;5.646;2023-11-21T04:30:16;11.9;70.0
78541;SHT31;67835;51.968;5.646;2023-11-21T04:32:45;11.9;70.1
78541;SHT31;67835;51.968;5.646;2023-11-21T04:35:15;11.9;70.1
78541;SHT31;67835;51.968;5.646;2023-11-21T04:37:43;11.9;70.2
78541;SHT31;67835;51.968;5.646;2023-11-21T04:40:14;11.9;70.0
78541;SHT31;67835;51.968;5.646;2023-11-21T04:42:43;11.9;70.2
78541;SHT31;67835;51.968;5.646;2023-11-21T04:45:14;11.9;70.2
78541;SHT31;67835;51.968;5.646;2023-11-21T04:47:43;11.9;70.2
78541;SHT31;67835;51.968;5.646;2023-11-21T04:50:12;11.9;70.6
78541;SHT31;67835;51.968;5.646;2023-11-21T04:52:40;11.9;70.5
78541;SHT31;67835;51.968;5.646;2023-11-21T04:55:09;11.9;70.5
78541;SHT31;67835;51.968;5.646;2023-11-21T04:57:39;11.9;70.4
78541;SHT31;67835;51.968;5.646;2023-11-21T05:00:10;11.9;70.4
78541;SHT31;67835;51.968;5.646;2023-11-21T05:02:40;11.9;70.4
78541;SHT31;67835;51.968;5.646;2023-11-21T05:05:11;11.9;70.7
78541;SHT31;67835;51.968;5.646;2023-11-21T05:07:41;11.9;70.8
78541;SHT31;67835;51.968;5.646;2023-11-21T05:10:12;11.9;70.8
78541;SHT31;67835;51.968;5.646;2023-11-21T05:12:42;11.9;71.0
78541;SHT31;67835;51.968;5.646;2023-11-21T05:15:14;11.9;71.0
78541;SHT31;67835;51.968;5.646;2023-11-21T05:17:44;12.0;71.0
78541;SHT31;67835;51.968;5.646;2023-11-21T05:20:16;12.0;71.0
78541;SHT31;67835;51.968;5.646;2023-11-21T05:22:48;12.0;71.0
78541;SHT31;67835;51.968;5.646;2023-11-21T05:25:17;12.0;70.9
78541;SHT31;67835;51.968;5.646;2023-11-21T05:27:46;12.1;70.8
78541;SHT31;67835;51.968;5.646;2023-11-21T05:30:15;12.1;70.6
78541;SHT31;67835;51.968;5.646;2023-11-21T05:32:45;12.1;70.6
78541;SHT31;67835;51.968;5.646;2023-11-21T05:35:18;12.1;70.7
78541;SHT31;67835;51.968;5.646;2023-11-21T05:37:47;12.1;70.8
78541;SHT31;67835;51.968;5.646;2023-11-21T05:40:17;12.1;70.8
78541;SHT31;67835;51.968;5.646;2023-11-21T05:42:50;12.1;70.9
78541;SHT31;67835;51.968;5.646;2023-11-21T05:45:19;12.1;71.0
78541;SHT31;67835;51.968;5.646;2023-11-21T05:47:48;12.1;70.8
78541;SHT31;67835;51.968;5.646;2023-11-21T05:50:17;12.1;70.8
78541;SHT31;67835;51.968;5.646;2023-11-21T05:52:47;12.1;70.7
78541;SHT31;67835;51.968;5.646;2023-11-21T05:55:16;12.2;70.6
78541;SHT31;67835;51.968;5.646;2023-11-21T05:57:51;12.2;70.6
78541;SHT31;67835;51.968;5.646;2023-11-21T06:00:20;12.2;70.6
78541;SHT31;67835;51.968;5.646;2023-11-21T06:02:53;12.2;70.6
78541;SHT31;67835;51.968;5.646;2023-11-21T06:05:24;12.2;70.7
78541;SHT31;67835;51.968;5.646;2023-11-21T06:07:54;12.1;70.9
78541;SHT31;67835;51.968;5.646;2023-11-21T06:10:25;12.1;70.8
78541;SHT31;67835;51.968;5.646;2023-11-21T06:12:54;12.1;71.0
78541;SHT31;67835;51.968;5.646;2023-11-21T06:15:24;12.1;71.2
78541;SHT31;67835;51.968;5.646;2023-11-21T06:17:52;12.2;71.1
78541;SHT31;67835;51.968;5.646;2023-11-21T06:20:22;12.2;71.2
78541;SHT31;67835;51.968;5.646;2023-11-21T06:22:51;12.2;71.2
78541;SHT31;67835;51.968;5.646;2023-11-21T06:25:21;12.2;71.3
78541;SHT31;67835;51.968;5.646;2023-11-21T06:27:50;12.2;71.5
78541;SHT31;67835;51.968;5.646;2023-11-21T06:30:20;12.2;71.6
78541;SHT31;67835;51.968;5.646;2023-11-21T06:32:49;12.2;71.5
78541;SHT31;67835;51.968;5.646;2023-11-21T06:35:19;12.2;71.6
78541;SHT31;67835;51.968;5.646;2023-11-21T06:37:49;12.2;71.6
78541;SHT31;67835;51.968;5.646;2023-11-21T06:40:19;12.2;71.4
78541;SHT31;67835;51.968;5.646;2023-11-21T06:42:49;12.2;71.4
78541;SHT31;67835;51.968;5.646;2023-11-21T06:45:19;12.2;71.5
78541;SHT31;67835;51.968;5.646;2023-11-21T06:47:48;12.2;71.5
78541;SHT31;67835;51.968;5.646;2023-11-21T06:50:18;12.2;71.4
78541;SHT31;67835;51.968;5.646;2023-11-21T06:52:47;12.2;71.3
78541;SHT31;67835;51.968;5.646;2023-11-21T06:55:17;12.2;71.3
78541;SHT31;67835;51.968;5.646;2023-11-21T06:57:46;12.2;71.6
78541;SHT31;67835;51.968;5.646;2023-11-21T07:00:17;12.2;71.8
78541;SHT31;67835;51.968;5.646;2023-11-21T07:02:46;12.2;71.8
78541;SHT31;67835;51.968;5.646;2023-11-21T07:05:18;12.3;71.9
78541;SHT31;67835;51.968;5.646;2023-11-21T07:07:48;12.3;72.0
78541;SHT31;67835;51.968;5.646;2023-11-21T07:10:17;12.3;71.9
78541;SHT31;67835;51.968;5.646;2023-11-21T07:12:46;12.3;71.9
78541;SHT31;67835;51.968;5.646;2023-11-21T07:15:15;12.3;72.1
78541;SHT31;67835;51.968;5.646;2023-11-21T07:17:46;12.3;72.0
78541;SHT31;67835;51.968;5.646;2023-11-21T07:20:16;12.4;72.0
78541;SHT31;67835;51.968;5.646;2023-11-21T07:22:46;12.4;72.0
78541;SHT31;67835;51.968;5.646;2023-11-21T07:25:14;12.4;72.0
78541;SHT31;67835;51.968;5.646;2023-11-21T07:27:43;12.5;71.8
78541;SHT31;67835;51.968;5.646;2023-11-21T07:30:12;12.5;71.8
78541;SHT31;67835;51.968;5.646;2023-11-21T07:32:41;12.6;71.7
78541;SHT31;67835;51.968;5.646;2023-11-21T07:35:11;12.6;71.6
78541;SHT31;67835;51.968;5.646;2023-11-21T07:37:39;12.6;71.6
78541;SHT31;67835;51.968;5.646;2023-11-21T07:40:13;12.7;71.5
78541;SHT31;67835;51.968;5.646;2023-11-21T07:42:45;12.7;71.3
78541;SHT31;67835;51.968;5.646;2023-11-21T07:45:15;12.7;71.3
78541;SHT31;67835;51.968;5.646;2023-11-21T07:47:44;12.8;71.2
78541;SHT31;67835;51.968;5.646;2023-11-21T07:50:12;12.8;71.2
78541;SHT31;67835;51.968;5.646;2023-11-21T07:52:42;12.8;71.2
78541;SHT31;67835;51.968;5.646;2023-11-21T07:55:10;12.9;71.0
78541;SHT31;67835;51.968;5.646;2023-11-21T07:57:40;12.9;71.0
78541;SHT31;67835;51.968;5.646;2023-11-21T08:00:10;12.9;71.1
78541;SHT31;67835;51.968;5.646;2023-11-21T08:02:38;12.9;71.0
78541;SHT31;67835;51.968;5.646;2023-11-21T08:05:08;12.9;71.2
78541;SHT31;67835;51.968;5.646;2023-11-21T08:07:38;13.0;71.6
78541;SHT31;67835;51.968;5.646;2023-11-21T08:10:08;13.1;71.2
78541;SHT31;67835;51.968;5.646;2023-11-21T08:12:42;13.2;70.2
78541;SHT31;67835;51.968;5.646;2023-11-21T08:15:11;13.3;70.2
78541;SHT31;67835;51.968;5.646;2023-11-21T08:17:40;13.3;70.2
78541;SHT31;67835;51.968;5.646;2023-11-21T08:20:10;13.3;70.1
78541;SHT31;67835;51.968;5.646;2023-11-21T08:22:41;13.4;69.7
78541;SHT31;67835;51.968;5.646;2023-11-21T08:25:11;13.4;69.6
78541;SHT31;67835;51.968;5.646;2023-11-21T08:27:41;13.4;69.6
78541;SHT31;67835;51.968;5.646;2023-11-21T08:30:11;13.4;69.7
78541;SHT31;67835;51.968;5.646;2023-11-21T08:32:43;13.4;69.8
78541;SHT31;67835;51.968;5.646;2023-11-21T08:35:11;13.4;70.1
78541;SHT31;67835;51.968;5.646;2023-11-21T08:37:40;13.4;70.4
78541;SHT31;67835;51.968;5.646;2023-11-21T08:40:10;13.4;70.3
78541;SHT31;67835;51.968;5.646;2023-11-21T08:42:43;13.4;70.5
78541;SHT31;67835;51.968;5.646;2023-11-21T08:45:12;13.4;70.8
78541;SHT31;67835;51.968;5.646;2023-11-21T08:47:41;13.4;71.1
78541;SHT31;67835;51.968;5.646;2023-11-21T08:50:12;13.5;71.3
78541;SHT31;67835;51.968;5.646;2023-11-21T08:52:42;13.5;71.0
78541;SHT31;67835;51.968;5.646;2023-11-21T08:55:10;13.5;70.8
78541;SHT31;67835;51.968;5.646;2023-11-21T08:57:42;13.6;70.7
78541;SHT31;67835;51.968;5.646;2023-11-21T09:00:15;13.6;70.6
78541;SHT31;67835;51.968;5.646;2023-11-21T09:02:45;13.6;70.8
78541;SHT31;67835;51.968;5.646;2023-11-21T09:05:15;13.7;70.5
78541;SHT31;67835;51.968;5.646;2023-11-21T09:07:46;13.7;70.5
78541;SHT31;67835;51.968;5.646;2023-11-21T09:10:16;13.7;70.5
78541;SHT31;67835;51.968;5.646;2023-11-21T09:12:47;13.8;70.3
78541;SHT31;67835;51.968;5.646;2023-11-21T09:15:17;13.8;70.1
78541;SHT31;67835;51.968;5.646;2023-11-21T09:17:47;13.8;69.9
78541;SHT31;67835;51.968;5.646;2023-11-21T09:20:16;13.9;70.0
78541;SHT31;67835;51.968;5.646;2023-11-21T09:22:45;13.9;70.1
78541;SHT31;67835;51.968;5.646;2023-11-21T09:25:14;13.9;70.3
78541;SHT31;67835;51.968;5.646;2023-11-21T09:27:45;13.9;70.2
78541;SHT31;67835;51.968;5.646;2023-11-21T09:30:15;14.0;70.0
78541;SHT31;67835;51.968;5.646;2023-11-21T09:32:45;14.0;70.4
78541;SHT31;67835;51.968;5.646;2023-11-21T09:35:14;14.0;70.3
78541;SHT31;67835;51.968;5.646;2023-11-21T09:37:44;14.1;70.2
78541;SHT31;67835;51.968;5.646;2023-11-21T09:40:20;14.1;70.3
78541;SHT31;67835;51.968;5.646;2023-11-21T09:42:54;14.1;70.4
78541;SHT31;67835;51.968;5.646;2023-11-21T09:45:28;14.1;70.5
78541;SHT31;67835;51.968;5.646;2023-11-21T09:48:01;14.2;70.8
78541;SHT31;67835;51.968;5.646;2023-11-21T09:50:33;14.2;70.7
78541;SHT31;67835;51.968;5.646;2023-11-21T09:53:12;14.3;71.5
78541;SHT31;67835;51.968;5.646;2023-11-21T09:55:46;14.3;71.7
78541;SHT31;67835;51.968;5.646;2023-11-21T09:58:15;14.4;72.9
78541;SHT31;67835;51.968;5.646;2023-11-21T10:00:47;14.5;71.4
78541;SHT31;67835;51.968;5.646;2023-11-21T10:03:16;14.6;72.0
78541;SHT31;67835;51.968;5.646;2023-11-21T10:05:46;14.7;71.7
78541;SHT31;67835;51.968;5.646;2023-11-21T10:08:16;14.8;70.4
78541;SHT31;67835;51.968;5.646;2023-11-21T10:10:51;14.9;69.7
78541;SHT31;67835;51.968;5.646;2023-11-21T10:13:22;15.0;69.1
78541;SHT31;67835;51.968;5.646;2023-11-21T10:15:52;15.1;68.1
78541;SHT31;67835;51.968;5.646;2023-11-21T10:18:24;15.1;68.1
78541;SHT31;67835;51.968;5.646;2023-11-21T10:20:54;15.2;67.5
78541;SHT31;67835;51.968;5.646;2023-11-21T10:23:24;15.2;67.0
78541;SHT31;67835;51.968;5.646;2023-11-21T10:25:54;15.2;66.9
78541;SHT31;67835;51.968;5.646;2023-11-21T10:28:27;15.2;66.9
78541;SHT31;67835;51.968;5.646;2023-11-21T10:31:01;15.2;67.1
78541;SHT31;67835;51.968;5.646;2023-11-21T10:33:29;15.2;66.8
78541;SHT31;67835;51.968;5.646;2023-11-21T10:35:59;15.2;66.4
78541;SHT31;67835;51.968;5.646;2023-11-21T10:38:35;15.2;66.4
78541;SHT31;67835;51.968;5.646;2023-11-21T10:41:10;15.1;66.3
78541;SHT31;67835;51.968;5.646;2023-11-21T10:43:43;15.1;66.3
78541;SHT31;67835;51.968;5.646;2023-11-21T10:46:13;15.1;66.6
78541;SHT31;67835;51.968;5.646;2023-11-21T10:48:43;15.0;66.7
78541;SHT31;67835;51.968;5.646;2023-11-21T10:51:15;15.0;66.8
78541;SHT31;67835;51.968;5.646;2023-11-21T10:53:45;15.0;67.3
78541;SHT31;67835;51.968;5.646;2023-11-21T10:56:18;15.0;67.7
78541;SHT31;67835;51.968;5.646;2023-11-21T10:58:50;15.0;68.0
78541;SHT31;67835;51.968;5.646;2023-11-21T11:01:20;15.0;67.6
78541;SHT31;67835;51.968;5.646;2023-11-21T11:03:54;15.0;67.8
78541;SHT31;67835;51.968;5.646;2023-11-21T11:06:26;15.0;67.3
78541;SHT31;67835;51.968;5.646;2023-11-21T11:09:00;15.0;66.9
78541;SHT31;67835;51.968;5.646;2023-11-21T11:11:30;15.0;67.1
78541;SHT31;67835;51.968;5.646;2023-11-21T11:14:00;14.9;67.0
78541;SHT31;67835;51.968;5.646;2023-11-21T11:16:31;14.9;66.7
78541;SHT31;67835;51.968;5.646;2023-11-21T11:19:01;14.9;66.5
78541;SHT31;67835;51.968;5.646;2023-11-21T11:21:43;14.9;66.3
78541;SHT31;67835;51.968;5.646;2023-11-21T11:24:27;14.9;66.3
78541;SHT31;67835;51.968;5.646;2023-11-21T11:27:10;14.9;66.3
78541;SHT31;67835;51.968;5.646;2023-11-21T11:29:52;14.9;66.2
78541;SHT31;67835;51.968;5.646;2023-11-21T11:32:36;14.8;66.4
78541;SHT31;67835;51.968;5.646;2023-11-21T11:35:17;14.8;66.5
78541;SHT31;67835;51.968;5.646;2023-11-21T11:37:47;14.8;67.0
78541;SHT31;67835;51.968;5.646;2023-11-21T11:40:17;14.8;67.0
78541;SHT31;67835;51.968;5.646;2023-11-21T11:43:00;14.7;67.4
78541;SHT31;67835;51.968;5.646;2023-11-21T11:45:34;14.7;67.4
78541;SHT31;67835;51.968;5.646;2023-11-21T11:48:08;14.7;67.4
78541;SHT31;67835;51.968;5.646;2023-11-21T11:50:42;14.7;67.5
78541;SHT31;67835;51.968;5.646;2023-11-21T11:53:15;14.8;67.6
78541;SHT31;67835;51.968;5.646;2023-11-21T11:55:44;14.7;67.3
78541;SHT31;67835;51.968;5.646;2023-11-21T11:58:13;14.7;67.3
78541;SHT31;67835;51.968;5.646;2023-11-21T12:00:44;14.7;67.5
78541;SHT31;67835;51.968;5.646;2023-11-21T12:03:16;14.7;67.8
78541;SHT31;67835;51.968;5.646;2023-11-21T12:05:46;14.7;68.3
78541;SHT31;67835;51.968;5.646;2023-11-21T12:08:16;14.6;68.3
78541;SHT31;67835;51.968;5.646;2023-11-21T12:10:45;14.6;68.2
78541;SHT31;67835;51.968;5.646;2023-11-21T12:13:16;14.6;68.4
78541;SHT31;67835;51.968;5.646;2023-11-21T12:15:45;14.6;68.6
78541;SHT31;67835;51.968;5.646;2023-11-21T12:18:15;14.6;68.7
78541;SHT31;67835;51.968;5.646;2023-11-21T12:20:45;14.6;69.1
78541;SHT31;67835;51.968;5.646;2023-11-21T12:23:17;14.7;69.0
78541;SHT31;67835;51.968;5.646;2023-11-21T12:25:50;14.8;67.9
78541;SHT31;67835;51.968;5.646;2023-11-21T12:28:20;14.8;67.3
78541;SHT31;67835;51.968;5.646;2023-11-21T12:30:49;14.9;67.1
78541;SHT31;67835;51.968;5.646;2023-11-21T12:33:20;14.9;67.3
78541;SHT31;67835;51.968;5.646;2023-11-21T12:35:49;14.9;67.1
78541;SHT31;67835;51.968;5.646;2023-11-21T12:38:20;14.9;67.0
78541;SHT31;67835;51.968;5.646;2023-11-21T12:40:53;14.9;66.7
78541;SHT31;67835;51.968;5.646;2023-11-21T12:43:24;14.9;66.8
78541;SHT31;67835;51.968;5.646;2023-11-21T12:46:07;14.9;66.8
78541;SHT31;67835;51.968;5.646;2023-11-21T12:48:37;14.9;67.0
78541;SHT31;67835;51.968;5.646;2023-11-21T12:51:09;14.9;67.0
78541;SHT31;67835;51.968;5.646;2023-11-21T12:53:41;14.9;66.7
78541;SHT31;67835;51.968;5.646;2023-11-21T12:56:12;14.9;66.4
78541;SHT31;67835;51.968;5.646;2023-11-21T12:58:45;14.9;66.3
78541;SHT31;67835;51.968;5.646;2023-11-21T13:01:17;14.9;66.1
78541;SHT31;67835;51.968;5.646;2023-11-21T13:03:50;14.9;66.1
78541;SHT31;67835;51.968;5.646;2023-11-21T13:06:19;14.8;66.2
78541;SHT31;67835;51.968;5.646;2023-11-21T13:08:51;14.8;66.2
78541;SHT31;67835;51.968;5.646;2023-11-21T13:11:21;14.8;66.5
78541;SHT31;67835;51.968;5.646;2023-11-21T13:13:51;14.7;66.7
78541;SHT31;67835;51.968;5.646;2023-11-21T13:16:22;14.7;66.7
78541;SHT31;67835;51.968;5.646;2023-11-21T13:18:51;14.7;66.9
78541;SHT31;67835;51.968;5.646;2023-11-21T13:21:20;14.6;67.3
78541;SHT31;67835;51.968;5.646;2023-11-21T13:23:49;14.6;67.5
78541;SHT31;67835;51.968;5.646;2023-11-21T13:26:19;14.6;67.3
78541;SHT31;67835;51.968;5.646;2023-11-21T13:28:50;14.6;67.0
78541;SHT31;67835;51.968;5.646;2023-11-21T13:31:19;14.6;66.9
78541;SHT31;67835;51.968;5.646;2023-11-21T13:33:53;14.6;66.8
78541;SHT31;67835;51.968;5.646;2023-11-21T13:36:28;14.6;66.5
78541;SHT31;67835;51.968;5.646;2023-11-21T13:38:59;14.5;66.4
78541;SHT31;67835;51.968;5.646;2023-11-21T13:41:33;14.5;66.5
78541;SHT31;67835;51.968;5.646;2023-11-21T13:44:05;14.5;66.7
78541;SHT31;67835;51.968;5.646;2023-11-21T13:46:39;14.5;66.7
78541;SHT31;67835;51.968;5.646;2023-11-21T13:49:08;14.5;67.1
78541;SHT31;67835;51.968;5.646;2023-11-21T13:51:37;14.5;66.8
78541;SHT31;67835;51.968;5.646;2023-11-21T13:54:10;14.5;67.2
78541;SHT31;67835;51.968;5.646;2023-11-21T13:56:38;14.5;67.2
78541;SHT31;67835;51.968;5.646;2023-11-21T13:59:08;14.5;66.9
78541;SHT31;67835;51.968;5.646;2023-11-21T14:01:49;14.5;66.6
78541;SHT31;67835;51.968;5.646;2023-11-21T14:04:26;14.5;66.1
78541;SHT31;67835;51.968;5.646;2023-11-21T14:07:09;14.5;66.4
78541;SHT31;67835;51.968;5.646;2023-11-21T14:09:49;14.5;66.4
78541;SHT31;67835;51.968;5.646;2023-11-21T14:12:19;14.5;66.3
78541;SHT31;67835;51.968;5.646;2023-11-21T14:14:49;14.6;66.0
78541;SHT31;67835;51.968;5.646;2023-11-21T14:17:18;14.5;65.9
78541;SHT31;67835;51.968;5.646;2023-11-21T14:19:49;14.5;65.8
78541;SHT31;67835;51.968;5.646;2023-11-21T14:22:17;14.5;65.4
78541;SHT31;67835;51.968;5.646;2023-11-21T14:24:48;14.5;65.5
78541;SHT31;67835;51.968;5.646;2023-11-21T14:27:19;14.5;65.5
78541;SHT31;67835;51.968;5.646;2023-11-21T14:29:47;14.5;65.4
78541;SHT31;67835;51.968;5.646;2023-11-21T14:32:16;14.5;65.3
78541;SHT31;67835;51.968;5.646;2023-11-21T14:34:48;14.5;65.3
78541;SHT31;67835;51.968;5.646;2023-11-21T14:37:16;14.5;65.3
78541;SHT31;67835;51.968;5.646;2023-11-21T14:39:46;14.4;64.7
78541;SHT31;67835;51.968;5.646;2023-11-21T14:42:16;14.4;65.1
78541;SHT31;67835;51.968;5.646;2023-11-21T14:44:49;14.3;65.2
78541;SHT31;67835;51.968;5.646;2023-11-21T14:47:18;14.2;65.3
78541;SHT31;67835;51.968;5.646;2023-11-21T14:49:52;14.2;65.6
78541;SHT31;67835;51.968;5.646;2023-11-21T14:52:23;14.1;65.6
78541;SHT31;67835;51.968;5.646;2023-11-21T14:55:03;14.1;65.8
78541;SHT31;67835;51.968;5.646;2023-11-21T14:57:54;14.0;66.3
78541;SHT31;67835;51.968;5.646;2023-11-21T15:00:23;14.0;66.3
78541;SHT31;67835;51.968;5.646;2023-11-21T15:03:11;13.9;66.9
78541;SHT31;67835;51.968;5.646;2023-11-21T15:05:48;13.8;67.0
78541;SHT31;67835;51.968;5.646;2023-11-21T15:08:17;13.7;67.3
78541;SHT31;67835;51.968;5.646;2023-11-21T15:10:54;13.7;67.4
78541;SHT31;67835;51.968;5.646;2023-11-21T15:13:22;13.6;67.3
78541;SHT31;67835;51.968;5.646;2023-11-21T15:15:54;13.6;67.2
78541;SHT31;67835;51.968;5.646;2023-11-21T15:18:29;13.5;67.4
78541;SHT31;67835;51.968;5.646;2023-11-21T15:20:58;13.5;67.0
78541;SHT31;67835;51.968;5.646;2023-11-21T15:23:26;13.4;67.2
78541;SHT31;67835;51.968;5.646;2023-11-21T15:25:57;13.4;67.1
78541;SHT31;67835;51.968;5.646;2023-11-21T15:28:28;13.4;66.2
78541;SHT31;67835;51.968;5.646;2023-11-21T15:30:58;13.3;65.7
78541;SHT31;67835;51.968;5.646;2023-11-21T15:33:29;13.3;66.2
78541;SHT31;67835;51.968;5.646;2023-11-21T15:35:58;13.3;65.7
78541;SHT31;67835;51.968;5.646;2023-11-21T15:38:27;13.3;64.6
78541;SHT31;67835;51.968;5.646;2023-11-21T15:40:56;13.3;64.5
78541;SHT31;67835;51.968;5.646;2023-11-21T15:43:26;13.3;64.2
78541;SHT31;67835;51.968;5.646;2023-11-21T15:45:54;13.2;64.2
78541;SHT31;67835;51.968;5.646;2023-11-21T15:48:25;13.2;63.9
78541;SHT31;67835;51.968;5.646;2023-11-21T15:50:58;13.1;63.3
78541;SHT31;67835;51.968;5.646;2023-11-21T15:53:29;13.1;62.9
78541;SHT31;67835;51.968;5.646;2023-11-21T15:55:57;13.0;63.1
78541;SHT31;67835;51.968;5.646;2023-11-21T15:58:26;13.0;63.3
78541;SHT31;67835;51.968;5.646;2023-11-21T16:00:55;12.9;63.5
78541;SHT31;67835;51.968;5.646;2023-11-21T16:03:24;12.8;63.4
78541;SHT31;67835;51.968;5.646;2023-11-21T16:05:53;12.8;63.4
78541;SHT31;67835;51.968;5.646;2023-11-21T16:08:21;12.7;62.9
78541;SHT31;67835;51.968;5.646;2023-11-21T16:10:50;12.7;63.0
78541;SHT31;67835;51.968;5.646;2023-11-21T16:13:18;12.6;62.5
78541;SHT31;67835;51.968;5.646;2023-11-21T16:15:49;12.6;62.2
78541;SHT31;67835;51.968;5.646;2023-11-21T16:18:21;12.5;62.1
78541;SHT31;67835;51.968;5.646;2023-11-21T16:20:50;12.4;62.0
78541;SHT31;67835;51.968;5.646;2023-11-21T16:23:18;12.3;62.0